Aledo, Illinois
Current Conditions -  °F | °C
As of 7:52 AM on Saturday 25 Oct 2014 (Local Time) from KMLI Reporting Station
Moderate Fog Moderate Fog  
Wind Chill: 51°   Ceiling: 200
Heat Index: 51°   Visibility: 0.25mi
Dew Point: 51°   Wind: 5mph
Humidity: 100%   Direction: 280°W
Pressure: 29.99"   Gusts: NA
Location:  41.2°N, 90.75°W
Report Text: KMLI 251252Z 28004KT 1/4SM R09/1400V5500FT FG VV002 11/11 A2999 RMK AO2 SLP154 T01060106 $
Loading
Personal Weather Stations






























Interactive Weather Map New forecast layout! Learn more

10-Day Weather Forecast

Advertisements
Track Severe Weather on mobile